Airfield :
LOGIN :

Register | Disclaimer

   EN    FR    IT 

 










Legend :    VFR   Marginal VFR   IFR   Intensive IFR   Very Intensive IFR
Visi :
Ceiling :
>= 8 km
>= 3000ft
5 to 8 km
1000 to 3000 ft
1500m to 5 km
500 to 1000 ft
800 to 1500m
200 to 500 ft
< 800m
< 200 ft
Symbols :   Thunderstorms  Fog  Heavy snow  Heavy precipitations  Wind > 20 kt
SIGMETs :     Misc.  Thunderstorms  Icing  Turbulence  Mountain Waves  Volcanic Ashes







- Airport Elevation : 779 ft
- IATA code : CMF
- Download approach charts


LFLB - Chambery / Aix-Les-Bains

CURRENT METAR :
  • 200830Z AUTO VRB03KT 9999 FEW049 OVC062 13/12 Q1009 TEMPO BKN012

EXPIRED METARs :
  • 200800Z AUTO VRB02KT 9999 FEW029 BKN046 BKN056 13/12 Q1008 TEMPO BKN012
  • 200730Z AUTO VRB02KT 9999 FEW024/// OVC045/// ///TCU 13/12 Q1008 TEMPO BKN012
  • 200700Z AUTO 16003KT 9999 FEW025 OVC052 13/12 Q1008 TEMPO BKN012
  • 200630Z AUTO VRB02KT 9999 -DZ FEW031 OVC052 13/12 Q1008 TEMPO BKN012
  • 200600Z AUTO 16002KT 9000 -DZ FEW029 BKN054 OVC064 12/12 Q1008 TEMPO BKN012

TAF TAF LFLB
Valid from the 20 at 06:00 until the 21 at 06:00 UTC


200500Z 2006/2106 VRB03KT 9999 BKN030
TEMPO 2006/2106 -RA BKN012
PROB40
TEMPO 2012/2020 4000 SHRA BKN020TCU
No reported NOTAMs for that airfield.



MET'MAP, your aeronautical weather chart ! - Copyright ORBIFLY December 2007 - Disclaimer

ORBIFLY MET'MAP TEAM :

Programming & Development : Alexandra Zaïnal
Concept & Development : Baudouin d'Aumeries
Co-Development & Prog : Marc-Olivier Méhu
Technical & hardware support : Manuel Goepfert

Contact : metmap@orbifly.com




SOURCES & CREDITS :

   NOAA